Time;durP1;ratioP1;P1;durP2;ratioP2;P2;SDS_P1;SDS_P2;PMS_P1;PMS_P2;Temp;Humidity;BMP_temperature;BMP_pressure;BME280_temperature;BME280_humidity;BME280_pressure;Samples;Min_cycle;Max_cycle;Signal;HPM_P1;HPM_P2
2024/02/29 00:00:41;;;;;;;9.40;2.53;;;;;;;;;;2069262;28;20034;-64
2024/02/29 00:02:00;;;;;;;7.68;2.50;;;;;;;;;;2063069;28;20018;-64
2024/02/29 00:03:19;;;;;;;9.73;2.78;;;;;;;;;;2067685;28;20026;-64
2024/02/29 00:04:38;;;;;;;4.32;2.25;;;;;;;;;;2070971;28;20030;-65
2024/02/29 00:05:57;;;;;;;7.63;3.15;;;;;;;;;;2072603;28;20023;-64
2024/02/29 00:07:15;;;;;;;4.43;2.22;;;;;;;;;;2070307;28;20026;-64
2024/02/29 00:08:34;;;;;;;11.52;2.85;;;;;;;;;;2066768;28;20483;-64
2024/02/29 00:09:53;;;;;;;4.78;2.38;;;;;;;;;;2069128;28;20120;-64
2024/02/29 00:11:12;;;;;;;6.07;2.72;;;;;;;;;;2069038;28;20035;-64
2024/02/29 00:12:31;;;;;;;6.32;2.42;;;;;;;;;;2073749;28;20021;-65
2024/02/29 00:13:52;;;;;;;7.03;2.60;;;;;;;;;;2069819;28;20050;-64
2024/02/29 00:15:11;;;;;;;3.80;2.20;;;;;;;;;;2068047;28;20034;-64
2024/02/29 00:16:31;;;;;;;8.55;2.65;;;;;;;;;;2066713;28;20030;-64
2024/02/29 00:17:50;;;;;;;4.03;2.25;;;;;;;;;;2068941;28;20034;-64
2024/02/29 00:19:09;;;;;;;7.18;2.42;;;;;;;;;;2065704;28;20027;-64
2024/02/29 00:20:28;;;;;;;4.68;1.90;;;;;;;;;;2068089;28;20267;-64
2024/02/29 00:21:47;;;;;;;7.10;2.30;;;;;;;;;;2069592;28;20022;-64
2024/02/29 00:23:06;;;;;;;5.88;2.30;;;;;;;;;;2068648;28;20034;-64
2024/02/29 00:24:25;;;;;;;3.95;2.20;;;;;;;;;;2069580;28;20395;-64
2024/02/29 00:25:43;;;;;;;6.53;2.33;;;;;;;;;;2070165;28;20112;-66
2024/02/29 00:27:02;;;;;;;4.55;2.50;;;;;;;;;;2070064;28;20041;-64
2024/02/29 00:28:21;;;;;;;5.30;2.40;;;;;;;;;;2069384;28;20038;-64
2024/02/29 00:29:42;;;;;;;6.18;2.38;;;;;;;;;;2069711;28;20030;-64
2024/02/29 00:31:01;;;;;;;3.33;2.42;;;;;;;;;;2069238;28;20022;-64
2024/02/29 00:32:20;;;;;;;9.40;2.63;;;;;;;;;;2070450;28;20482;-64
2024/02/29 00:33:39;;;;;;;7.32;2.58;;;;;;;;;;2069178;28;20042;-64
2024/02/29 00:34:58;;;;;;;4.53;2.05;;;;;;;;;;2068204;28;20669;-64
2024/02/29 00:36:17;;;;;;;4.32;2.30;;;;;;;;;;2069982;28;20479;-64
2024/02/29 00:37:36;;;;;;;4.53;2.50;;;;;;;;;;2068890;28;20121;-64
2024/02/29 00:38:55;;;;;;;6.40;2.20;;;;;;;;;;2068898;28;20492;-64
2024/02/29 00:40:14;;;;;;;6.97;2.78;;;;;;;;;;2069065;28;20022;-64
2024/02/29 00:41:33;;;;;;;5.10;2.40;;;;;;;;;;2070349;28;20105;-64
2024/02/29 00:42:53;;;;;;;8.05;3.00;;;;;;;;;;2069945;28;20053;-64
2024/02/29 00:44:11;;;;;;;10.35;3.08;;;;;;;;;;2068489;28;20038;-64
2024/02/29 00:45:30;;;;;;;6.45;2.70;;;;;;;;;;2071100;28;20022;-64
2024/02/29 00:46:49;;;;;;;6.47;2.53;;;;;;;;;;2071076;28;20030;-64
2024/02/29 00:48:08;;;;;;;7.00;2.97;;;;;;;;;;2068350;28;20530;-64
2024/02/29 00:49:27;;;;;;;9.52;2.75;;;;;;;;;;2070346;28;20034;-64
2024/02/29 00:50:46;;;;;;;5.22;2.85;;;;;;;;;;2069361;28;20034;-64
2024/02/29 00:52:06;;;;;;;6.75;3.05;;;;;;;;;;2069300;28;20030;-64
2024/02/29 00:53:25;;;;;;;7.15;2.88;;;;;;;;;;2070124;28;20046;-64
2024/02/29 00:54:44;;;;;;;6.72;2.83;;;;;;;;;;2070346;28;20026;-64
2024/02/29 00:56:03;;;;;;;11.48;2.50;;;;;;;;;;2069696;28;20026;-64
2024/02/29 00:57:22;;;;;;;7.97;3.20;;;;;;;;;;2070205;28;20581;-64
2024/02/29 00:58:41;;;;;;;11.27;3.03;;;;;;;;;;2068835;28;20026;-64
2024/02/29 01:00:00;;;;;;;5.38;2.72;;;;;;;;;;2067882;28;20057;-64
2024/02/29 01:01:19;;;;;;;6.85;2.53;;;;;;;;;;2070101;28;20045;-64
2024/02/29 01:02:38;;;;;;;6.05;2.40;;;;;;;;;;2070689;28;20030;-64
2024/02/29 01:03:57;;;;;;;9.82;2.90;;;;;;;;;;2069214;28;20491;-64
2024/02/29 01:05:16;;;;;;;3.58;2.55;;;;;;;;;;2069322;28;20066;-64
2024/02/29 01:06:34;;;;;;;6.88;2.80;;;;;;;;;;2069319;28;20043;-64
2024/02/29 01:07:53;;;;;;;5.68;2.90;;;;;;;;;;2067660;28;20039;-64
2024/02/29 01:09:12;;;;;;;9.73;2.80;;;;;;;;;;2069651;28;20038;-64
2024/02/29 01:10:31;;;;;;;8.05;3.25;;;;;;;;;;2070564;28;20033;-64
2024/02/29 01:11:50;;;;;;;5.40;2.70;;;;;;;;;;2069402;28;20026;-64
2024/02/29 01:13:09;;;;;;;9.25;3.08;;;;;;;;;;2068283;28;20022;-64
2024/02/29 01:14:29;;;;;;;9.80;2.60;;;;;;;;;;2068085;28;20507;-64
2024/02/29 01:15:49;;;;;;;5.72;2.70;;;;;;;;;;2068871;28;20057;-64
2024/02/29 01:17:08;;;;;;;6.30;2.45;;;;;;;;;;2069720;28;20394;-65
2024/02/29 01:18:27;;;;;;;9.57;2.63;;;;;;;;;;2068509;28;20030;-64
2024/02/29 01:19:46;;;;;;;10.70;3.03;;;;;;;;;;2069161;28;20030;-65
2024/02/29 01:21:06;;;;;;;6.68;2.42;;;;;;;;;;2068823;28;20479;-65
2024/02/29 01:22:25;;;;;;;4.93;2.30;;;;;;;;;;2067847;28;20030;-64
2024/02/29 01:23:44;;;;;;;5.88;2.35;;;;;;;;;;2069589;28;20030;-64
2024/02/29 01:25:03;;;;;;;7.18;2.72;;;;;;;;;;2070479;28;20495;-64
2024/02/29 01:26:22;;;;;;;3.85;2.60;;;;;;;;;;2068837;28;20109;-64
2024/02/29 01:27:41;;;;;;;5.88;2.78;;;;;;;;;;2068003;28;20031;-64
2024/02/29 01:29:00;;;;;;;7.07;2.67;;;;;;;;;;2068479;28;20030;-64
2024/02/29 01:30:20;;;;;;;6.40;2.58;;;;;;;;;;2069050;28;20030;-64
2024/02/29 01:31:39;;;;;;;7.53;2.65;;;;;;;;;;2069226;28;20558;-64
2024/02/29 01:32:58;;;;;;;6.38;2.60;;;;;;;;;;2068527;28;20114;-64
2024/02/29 01:34:18;;;;;;;5.85;2.65;;;;;;;;;;2069606;28;20102;-64
2024/02/29 01:35:37;;;;;;;4.72;3.08;;;;;;;;;;2073000;28;20116;-64
2024/02/29 01:36:56;;;;;;;3.88;2.58;;;;;;;;;;2067164;28;20487;-64
2024/02/29 01:38:15;;;;;;;7.13;2.75;;;;;;;;;;2071235;28;20096;-64
2024/02/29 01:39:34;;;;;;;8.38;3.17;;;;;;;;;;2068652;28;20019;-64
2024/02/29 01:40:53;;;;;;;5.47;2.70;;;;;;;;;;2069068;28;20035;-66
2024/02/29 01:42:13;;;;;;;6.35;2.90;;;;;;;;;;2068943;28;20526;-64
2024/02/29 01:43:32;;;;;;;10.50;3.70;;;;;;;;;;2068697;28;20030;-64
2024/02/29 01:44:54;;;;;;;5.63;2.80;;;;;;;;;;2068948;28;20030;-64
2024/02/29 01:46:13;;;;;;;;;;;;;;;;;;2070499;28;20026;-64
2024/02/29 01:47:32;;;;;;;6.35;2.85;;;;;;;;;;2067720;28;20267;-64
2024/02/29 01:48:52;;;;;;;4.60;3.03;;;;;;;;;;2068761;28;20535;-64
2024/02/29 01:50:12;;;;;;;6.55;2.58;;;;;;;;;;2069524;28;20026;-64
2024/02/29 01:51:32;;;;;;;6.20;2.80;;;;;;;;;;2069351;28;20038;-64
2024/02/29 01:52:51;;;;;;;9.70;3.10;;;;;;;;;;2069254;28;20061;-64
2024/02/29 01:54:10;;;;;;;7.63;2.88;;;;;;;;;;2069728;28;20100;-64
2024/02/29 01:55:29;;;;;;;7.07;2.95;;;;;;;;;;2068648;28;20038;-64
2024/02/29 01:56:49;;;;;;;5.78;3.00;;;;;;;;;;2068309;28;20494;-64
2024/02/29 01:58:08;;;;;;;11.98;3.08;;;;;;;;;;2069788;28;20069;-64
2024/02/29 01:59:27;;;;;;;7.50;3.03;;;;;;;;;;2068208;28;20034;-64
2024/02/29 02:00:46;;;;;;;9.00;3.28;;;;;;;;;;2069215;28;20542;-65
2024/02/29 02:02:05;;;;;;;13.18;3.40;;;;;;;;;;2068536;28;20137;-64
2024/02/29 02:03:24;;;;;;;10.02;3.33;;;;;;;;;;2068531;28;20062;-65
2024/02/29 02:04:43;;;;;;;8.75;3.20;;;;;;;;;;2068553;28;20027;-64
2024/02/29 02:06:02;;;;;;;12.10;3.55;;;;;;;;;;2068516;28;20026;-65
2024/02/29 02:07:21;;;;;;;9.55;2.95;;;;;;;;;;2069890;28;20030;-64
2024/02/29 02:08:40;;;;;;;6.15;3.20;;;;;;;;;;2069073;28;20038;-64
2024/02/29 02:09:59;;;;;;;7.72;3.63;;;;;;;;;;2068739;28;20399;-64
2024/02/29 02:11:18;;;;;;;8.32;3.42;;;;;;;;;;2068570;28;20503;-64
2024/02/29 02:12:37;;;;;;;7.05;2.95;;;;;;;;;;2068761;28;20507;-65
2024/02/29 02:13:56;;;;;;;11.93;3.97;;;;;;;;;;2068865;28;20113;-64
2024/02/29 02:15:15;;;;;;;6.25;3.20;;;;;;;;;;2069738;28;20042;-64
2024/02/29 02:16:34;;;;;;;11.95;3.08;;;;;;;;;;2068914;28;20029;-64
2024/02/29 02:17:53;;;;;;;13.55;2.90;;;;;;;;;;2068867;28;20018;-64
2024/02/29 02:19:12;;;;;;;11.77;3.20;;;;;;;;;;2066923;28;20022;-64
2024/02/29 02:20:32;;;;;;;9.50;3.40;;;;;;;;;;2069272;28;20026;-64
2024/02/29 02:21:50;;;;;;;9.00;3.17;;;;;;;;;;2066027;28;20498;-64
2024/02/29 02:23:09;;;;;;;8.95;3.10;;;;;;;;;;2069221;28;20066;-64
2024/02/29 02:24:28;;;;;;;5.82;3.58;;;;;;;;;;2069715;28;20026;-65
2024/02/29 02:25:47;;;;;;;14.20;4.05;;;;;;;;;;2069704;28;20406;-64
2024/02/29 02:27:06;;;;;;;8.38;3.60;;;;;;;;;;2068561;28;20053;-64
2024/02/29 02:28:25;;;;;;;10.00;3.65;;;;;;;;;;2069964;28;20644;-65
2024/02/29 02:29:44;;;;;;;9.32;3.30;;;;;;;;;;2069355;28;20034;-64
2024/02/29 02:31:03;;;;;;;6.65;3.55;;;;;;;;;;2068470;28;20038;-64
2024/02/29 02:32:22;;;;;;;12.00;4.07;;;;;;;;;;2068667;28;20505;-64
2024/02/29 02:33:41;;;;;;;10.05;3.90;;;;;;;;;;2068739;28;20046;-64
2024/02/29 02:35:01;;;;;;;9.32;3.75;;;;;;;;;;2069475;28;20037;-64
2024/02/29 02:36:20;;;;;;;13.18;3.80;;;;;;;;;;2068983;28;20065;-64
2024/02/29 02:37:40;;;;;;;6.93;3.25;;;;;;;;;;2069796;28;20030;-64
2024/02/29 02:38:59;;;;;;;11.75;4.13;;;;;;;;;;2069543;28;20495;-64
2024/02/29 02:40:18;;;;;;;9.02;3.80;;;;;;;;;;2069011;28;20108;-64
2024/02/29 02:41:36;;;;;;;9.95;3.92;;;;;;;;;;2067352;28;20026;-64
2024/02/29 02:42:55;;;;;;;9.77;4.55;;;;;;;;;;2067340;28;20062;-64
2024/02/29 02:44:14;;;;;;;7.00;3.75;;;;;;;;;;2068541;28;20034;-64
2024/02/29 02:45:33;;;;;;;14.18;4.30;;;;;;;;;;2070341;28;20018;-64
2024/02/29 02:46:52;;;;;;;9.82;4.40;;;;;;;;;;2068946;28;20030;-64
2024/02/29 02:48:11;;;;;;;14.90;4.72;;;;;;;;;;2069432;28;20038;-64
2024/02/29 02:49:30;;;;;;;12.07;4.57;;;;;;;;;;2069075;28;20030;-64
2024/02/29 02:50:49;;;;;;;10.20;4.60;;;;;;;;;;2069084;28;20046;-64
2024/02/29 02:52:08;;;;;;;9.70;4.13;;;;;;;;;;2068845;28;20029;-64
2024/02/29 02:53:27;;;;;;;11.10;4.28;;;;;;;;;;2067943;28;20069;-65
2024/02/29 02:54:46;;;;;;;11.00;4.50;;;;;;;;;;2068926;28;20034;-65
2024/02/29 02:56:05;;;;;;;12.77;4.28;;;;;;;;;;2069054;28;20105;-64
2024/02/29 02:57:24;;;;;;;9.52;4.40;;;;;;;;;;2071102;28;20124;-65
2024/02/29 02:58:43;;;;;;;12.85;4.38;;;;;;;;;;2067813;28;20018;-64
2024/02/29 03:00:04;;;;;;;9.50;4.13;;;;;;;;;;2069385;28;20474;-64
2024/02/29 03:01:23;;;;;;;12.10;4.45;;;;;;;;;;2068092;28;20034;-64
2024/02/29 03:02:42;;;;;;;11.60;4.65;;;;;;;;;;2068648;28;20034;-64
2024/02/29 03:04:00;;;;;;;8.98;3.85;;;;;;;;;;2068682;28;20022;-64
2024/02/29 03:05:20;;;;;;;9.98;5.30;;;;;;;;;;2070269;28;20022;-64
2024/02/29 03:06:39;;;;;;;11.00;4.47;;;;;;;;;;2068171;28;20126;-64
2024/02/29 03:07:58;;;;;;;9.05;5.10;;;;;;;;;;2069101;28;20035;-64
2024/02/29 03:09:17;;;;;;;15.57;3.88;;;;;;;;;;2067698;28;20030;-64
2024/02/29 03:10:36;;;;;;;13.00;4.65;;;;;;;;;;2068998;28;20037;-64
2024/02/29 03:11:55;;;;;;;14.10;5.40;;;;;;;;;;2068450;28;20026;-64
2024/02/29 03:13:15;;;;;;;9.95;4.70;;;;;;;;;;2065464;28;20034;-64
2024/02/29 03:14:34;;;;;;;10.38;5.40;;;;;;;;;;2068025;28;20030;-64
2024/02/29 03:15:53;;;;;;;16.48;5.40;;;;;;;;;;2068059;28;20506;-64
2024/02/29 03:17:12;;;;;;;16.27;5.10;;;;;;;;;;2066646;28;20043;-64
2024/02/29 03:18:31;;;;;;;10.57;4.80;;;;;;;;;;2068560;28;20387;-64
2024/02/29 03:19:50;;;;;;;13.85;4.38;;;;;;;;;;2067084;28;20070;-64
2024/02/29 03:21:11;;;;;;;16.98;4.65;;;;;;;;;;2067259;28;20034;-64
2024/02/29 03:22:30;;;;;;;12.75;5.05;;;;;;;;;;2069655;28;20018;-64
2024/02/29 03:23:49;;;;;;;14.45;5.50;;;;;;;;;;2069140;28;20026;-64
2024/02/29 03:25:09;;;;;;;11.52;4.75;;;;;;;;;;2067176;28;20031;-64
2024/02/29 03:26:28;;;;;;;13.68;4.80;;;;;;;;;;2068100;28;20030;-64
2024/02/29 03:27:48;;;;;;;13.15;5.22;;;;;;;;;;2068112;28;20030;-64
2024/02/29 03:29:08;;;;;;;14.68;5.22;;;;;;;;;;2062676;28;20023;-64
2024/02/29 03:30:27;;;;;;;13.27;4.70;;;;;;;;;;2066775;28;20479;-64
2024/02/29 03:31:46;;;;;;;11.13;4.88;;;;;;;;;;2068442;28;20033;-64
2024/02/29 03:33:05;;;;;;;15.27;5.55;;;;;;;;;;2068645;28;20023;-62
2024/02/29 03:34:24;;;;;;;11.35;4.53;;;;;;;;;;2067330;28;20434;-62
2024/02/29 03:35:42;;;;;;;12.75;4.82;;;;;;;;;;2068795;28;20112;-63
2024/02/29 03:37:01;;;;;;;12.02;5.13;;;;;;;;;;2069089;28;20038;-62
2024/02/29 03:38:21;;;;;;;13.82;5.10;;;;;;;;;;2065479;28;20475;-62
2024/02/29 03:39:40;;;;;;;17.83;4.78;;;;;;;;;;2067498;28;20042;-62
2024/02/29 03:40:59;;;;;;;18.10;5.47;;;;;;;;;;2068776;28;20037;-62
2024/02/29 03:42:17;;;;;;;9.98;4.78;;;;;;;;;;2068541;28;20026;-64
2024/02/29 03:43:37;;;;;;;14.07;4.55;;;;;;;;;;2067004;28;20030;-64
2024/02/29 03:44:56;;;;;;;11.07;4.82;;;;;;;;;;2068386;28;20034;-63
2024/02/29 03:46:15;;;;;;;17.25;5.90;;;;;;;;;;2068286;28;20031;-63
2024/02/29 03:47:35;;;;;;;16.23;5.05;;;;;;;;;;2068288;28;20431;-62
2024/02/29 03:48:54;;;;;;;13.98;5.22;;;;;;;;;;2063629;28;20438;-62
2024/02/29 03:50:13;;;;;;;10.20;5.10;;;;;;;;;;2063176;28;20120;-62
2024/02/29 03:51:33;;;;;;;10.32;4.78;;;;;;;;;;2066521;28;20030;-62
2024/02/29 03:52:52;;;;;;;12.00;5.43;;;;;;;;;;2066948;28;20030;-62
2024/02/29 03:54:11;;;;;;;11.32;5.47;;;;;;;;;;2067388;28;20042;-62
2024/02/29 03:55:30;;;;;;;14.40;5.97;;;;;;;;;;2064648;28;20423;-62
2024/02/29 03:56:49;;;;;;;18.90;6.03;;;;;;;;;;2069866;28;20142;-62
2024/02/29 03:58:08;;;;;;;14.48;5.65;;;;;;;;;;2068843;28;20054;-62
2024/02/29 03:59:28;;;;;;;15.18;5.28;;;;;;;;;;2071126;28;20382;-63
2024/02/29 04:00:48;;;;;;;15.52;5.18;;;;;;;;;;2069770;28;20022;-63
2024/02/29 04:02:07;;;;;;;12.98;5.20;;;;;;;;;;2068008;28;20023;-63
2024/02/29 04:03:26;;;;;;;13.05;5.32;;;;;;;;;;2066420;28;20042;-63
2024/02/29 04:04:46;;;;;;;13.52;5.13;;;;;;;;;;2072235;28;20026;-62
2024/02/29 04:06:06;;;;;;;11.95;4.50;;;;;;;;;;2070720;28;20022;-62
2024/02/29 04:07:25;;;;;;;12.25;5.15;;;;;;;;;;2068844;28;20113;-63
2024/02/29 04:08:45;;;;;;;15.05;5.53;;;;;;;;;;2069728;28;20485;-62
2024/02/29 04:10:05;;;;;;;13.50;5.60;;;;;;;;;;2068999;28;20486;-62
2024/02/29 04:11:23;;;;;;;12.50;4.97;;;;;;;;;;2070310;28;20026;-63
2024/02/29 04:12:42;;;;;;;13.73;5.35;;;;;;;;;;2068834;28;20038;-63
2024/02/29 04:14:03;;;;;;;14.50;5.28;;;;;;;;;;2069648;28;20034;-63
2024/02/29 04:15:22;;;;;;;11.10;5.35;;;;;;;;;;2069899;28;20026;-63
2024/02/29 04:16:41;;;;;;;11.30;5.57;;;;;;;;;;2069864;28;20034;-63
2024/02/29 04:18:00;;;;;;;11.82;4.95;;;;;;;;;;2069624;28;20057;-63
2024/02/29 04:19:19;;;;;;;12.20;4.78;;;;;;;;;;2070380;28;20064;-63
2024/02/29 04:20:38;;;;;;;15.85;5.88;;;;;;;;;;2069405;28;20545;-62
2024/02/29 04:21:57;;;;;;;12.55;5.40;;;;;;;;;;2069477;28;20117;-62
2024/02/29 04:23:16;;;;;;;16.60;4.78;;;;;;;;;;2070183;28;20030;-62
2024/02/29 04:24:35;;;;;;;23.35;11.93;;;;;;;;;;2071255;28;20037;-63
2024/02/29 04:25:54;;;;;;;11.85;5.40;;;;;;;;;;2069707;28;20366;-62
2024/02/29 04:27:13;;;;;;;15.15;6.10;;;;;;;;;;2069192;28;20490;-63
2024/02/29 04:28:31;;;;;;;12.32;5.53;;;;;;;;;;2069338;28;20515;-63
2024/02/29 04:29:50;;;;;;;12.38;5.47;;;;;;;;;;2070086;28;20084;-63
2024/02/29 04:31:10;;;;;;;22.33;6.00;;;;;;;;;;2069988;28;20464;-63
2024/02/29 04:32:29;;;;;;;17.02;5.50;;;;;;;;;;2070105;28;20100;-63
2024/02/29 04:33:47;;;;;;;18.23;6.60;;;;;;;;;;2070015;28;20030;-62
2024/02/29 04:35:09;;;;;;;14.77;5.35;;;;;;;;;;2069595;28;20042;-63
2024/02/29 04:36:29;;;;;;;15.93;5.78;;;;;;;;;;2068872;28;20038;-63
2024/02/29 04:37:48;;;;;;;14.90;5.88;;;;;;;;;;2068186;28;20388;-62
2024/02/29 04:39:07;;;;;;;14.38;5.93;;;;;;;;;;2069385;28;20034;-63
2024/02/29 04:40:26;;;;;;;12.98;5.68;;;;;;;;;;2071053;28;20112;-62
2024/02/29 04:41:45;;;;;;;16.60;5.65;;;;;;;;;;2069403;28;20027;-62
2024/02/29 04:43:04;;;;;;;11.95;5.15;;;;;;;;;;2068826;28;20503;-62
2024/02/29 04:44:23;;;;;;;9.98;5.03;;;;;;;;;;2066865;28;20026;-62
2024/02/29 04:45:42;;;;;;;12.38;5.00;;;;;;;;;;2070158;28;20030;-63
2024/02/29 04:47:01;;;;;;;16.75;5.82;;;;;;;;;;2069717;28;20069;-63
2024/02/29 04:48:20;;;;;;;10.85;5.57;;;;;;;;;;2069632;28;20038;-62
2024/02/29 04:49:39;;;;;;;11.45;5.03;;;;;;;;;;2069299;28;20038;-63
2024/02/29 04:50:58;;;;;;;12.90;5.63;;;;;;;;;;2070198;28;20026;-63
2024/02/29 04:52:17;;;;;;;17.10;5.80;;;;;;;;;;2070013;28;20030;-63
2024/02/29 04:53:36;;;;;;;10.35;5.00;;;;;;;;;;2070519;28;20478;-63
2024/02/29 04:54:55;;;;;;;12.57;5.22;;;;;;;;;;2069279;28;20133;-63
2024/02/29 04:56:14;;;;;;;15.20;6.00;;;;;;;;;;2067484;28;20503;-62
2024/02/29 04:57:33;;;;;;;11.80;5.40;;;;;;;;;;2070055;28;20038;-62
2024/02/29 04:58:52;;;;;;;19.27;6.07;;;;;;;;;;2071055;28;20038;-62
2024/02/29 05:00:11;;;;;;;22.23;6.22;;;;;;;;;;2071445;28;20026;-63
2024/02/29 05:01:31;;;;;;;17.48;5.90;;;;;;;;;;2066245;28;20113;-63
2024/02/29 05:02:50;;;;;;;12.40;5.18;;;;;;;;;;2068360;28;20034;-62
2024/02/29 05:04:09;;;;;;;16.20;5.85;;;;;;;;;;2070455;28;20026;-62
2024/02/29 05:05:28;;;;;;;17.90;5.32;;;;;;;;;;2069502;28;20429;-63
2024/02/29 05:06:47;;;;;;;14.13;5.75;;;;;;;;;;2069928;28;20026;-63
2024/02/29 05:08:06;;;;;;;15.70;5.35;;;;;;;;;;2069589;28;20026;-63
2024/02/29 05:09:25;;;;;;;19.58;6.43;;;;;;;;;;2069828;28;20034;-63
2024/02/29 05:10:44;;;;;;;16.05;5.70;;;;;;;;;;2070020;28;20046;-63
2024/02/29 05:12:04;;;;;;;15.57;5.50;;;;;;;;;;2069892;28;21032;-62
2024/02/29 05:13:23;;;;;;;17.05;6.07;;;;;;;;;;2071314;28;20607;-62
2024/02/29 05:14:42;;;;;;;19.63;5.75;;;;;;;;;;2069906;28;20383;-62
2024/02/29 05:16:04;;;;;;;14.32;5.57;;;;;;;;;;2068824;28;20113;-66
2024/02/29 05:17:23;;;;;;;19.42;6.05;;;;;;;;;;2068714;28;20499;-62
2024/02/29 05:18:42;;;;;;;15.95;6.25;;;;;;;;;;2068787;28;20433;-63
2024/02/29 05:20:02;;;;;;;13.00;5.97;;;;;;;;;;2069992;28;20413;-63
2024/02/29 05:21:21;;;;;;;16.00;6.65;;;;;;;;;;2070146;28;20491;-64
2024/02/29 05:22:41;;;;;;;14.75;6.15;;;;;;;;;;2070581;28;20030;-62
2024/02/29 05:24:00;;;;;;;13.27;5.97;;;;;;;;;;2069183;28;20034;-62
2024/02/29 05:25:19;;;;;;;16.05;5.82;;;;;;;;;;2069017;28;20038;-62
2024/02/29 05:26:39;;;;;;;21.77;7.88;;;;;;;;;;2070874;28;20026;-63
2024/02/29 05:27:58;;;;;;;18.05;6.75;;;;;;;;;;2070632;28;20030;-62
2024/02/29 05:29:16;;;;;;;20.00;8.93;;;;;;;;;;2068184;28;20026;-62
2024/02/29 05:30:35;;;;;;;16.98;6.05;;;;;;;;;;2068965;28;20038;-62
2024/02/29 05:31:54;;;;;;;12.52;5.90;;;;;;;;;;2070134;28;20109;-62
2024/02/29 05:33:13;;;;;;;16.88;7.40;;;;;;;;;;2070028;28;20379;-63
2024/02/29 05:34:32;;;;;;;12.07;6.10;;;;;;;;;;2070726;28;20452;-62
2024/02/29 05:35:51;;;;;;;19.50;6.20;;;;;;;;;;2068304;28;20034;-63
2024/02/29 05:37:10;;;;;;;11.93;5.75;;;;;;;;;;2067111;28;20030;-63
2024/02/29 05:38:29;;;;;;;14.68;6.82;;;;;;;;;;2069866;28;20044;-63
2024/02/29 05:39:48;;;;;;;11.07;6.28;;;;;;;;;;2069489;28;20058;-63
2024/02/29 05:41:07;;;;;;;14.80;6.57;;;;;;;;;;2069239;28;20026;-63
2024/02/29 05:42:26;;;;;;;20.45;7.45;;;;;;;;;;2069927;28;20018;-63
2024/02/29 05:43:46;;;;;;;18.80;7.30;;;;;;;;;;2069033;28;20072;-63
2024/02/29 05:45:06;;;;;;;16.23;6.80;;;;;;;;;;2068807;28;20037;-63
2024/02/29 05:46:25;;;;;;;15.50;6.72;;;;;;;;;;2069068;28;20108;-64
2024/02/29 05:47:44;;;;;;;14.15;6.53;;;;;;;;;;2067836;28;20440;-63
2024/02/29 05:49:03;;;;;;;15.23;6.45;;;;;;;;;;2070282;28;20110;-63
2024/02/29 05:50:22;;;;;;;13.88;6.55;;;;;;;;;;2068817;28;20507;-63
2024/02/29 05:51:40;;;;;;;16.02;7.07;;;;;;;;;;2069302;28;20033;-63
2024/02/29 05:53:00;;;;;;;12.15;6.15;;;;;;;;;;2068448;28;20058;-63
2024/02/29 05:54:19;;;;;;;13.65;6.43;;;;;;;;;;2069326;28;20043;-63
2024/02/29 05:55:37;;;;;;;17.50;7.57;;;;;;;;;;2071241;28;20043;-63
2024/02/29 05:56:58;;;;;;;20.38;7.53;;;;;;;;;;2068809;28;20483;-63
2024/02/29 05:58:18;;;;;;;18.23;7.70;;;;;;;;;;2069116;28;20402;-63
2024/02/29 05:59:37;;;;;;;19.67;7.50;;;;;;;;;;2069311;28;20395;-62
2024/02/29 06:00:56;;;;;;;12.07;6.35;;;;;;;;;;2070055;28;20034;-63
2024/02/29 06:02:15;;;;;;;16.40;6.85;;;;;;;;;;2069312;28;20127;-63
2024/02/29 06:03:36;;;;;;;17.65;6.93;;;;;;;;;;2068352;28;20479;-63
2024/02/29 06:04:55;;;;;;;15.27;6.70;;;;;;;;;;2069732;28;20034;-63
2024/02/29 06:06:15;;;;;;;10.75;7.53;;;;;;;;;;2069725;28;20486;-63
2024/02/29 06:07:34;;;;;;;16.08;6.53;;;;;;;;;;2069545;28;20061;-64
2024/02/29 06:08:53;;;;;;;11.50;6.80;;;;;;;;;;2069111;28;20356;-63
2024/02/29 06:10:12;;;;;;;18.55;6.45;;;;;;;;;;2069397;28;20462;-63
2024/02/29 06:11:31;;;;;;;19.65;7.40;;;;;;;;;;2068605;28;20061;-63
2024/02/29 06:12:50;;;;;;;14.10;7.15;;;;;;;;;;2069923;28;20073;-63
2024/02/29 06:14:09;;;;;;;19.35;7.60;;;;;;;;;;2068976;28;20038;-64
2024/02/29 06:15:28;;;;;;;17.08;7.50;;;;;;;;;;2068214;28;20053;-63
2024/02/29 06:16:47;;;;;;;16.30;8.20;;;;;;;;;;2069027;28;20037;-63
2024/02/29 06:18:07;;;;;;;11.38;7.40;;;;;;;;;;2069902;28;20395;-63
2024/02/29 06:19:25;;;;;;;16.25;7.35;;;;;;;;;;2068395;28;20108;-63
2024/02/29 06:20:44;;;;;;;18.67;7.60;;;;;;;;;;2068712;28;20061;-63
2024/02/29 06:22:05;;;;;;;21.75;8.35;;;;;;;;;;2069253;28;20026;-63
2024/02/29 06:23:24;;;;;;;17.98;9.15;;;;;;;;;;2069076;28;20030;-64
2024/02/29 06:24:43;;;;;;;16.95;8.07;;;;;;;;;;2070190;28;20102;-63
2024/02/29 06:26:02;;;;;;;16.48;8.10;;;;;;;;;;2069577;28;20827;-63
2024/02/29 06:27:21;;;;;;;22.15;9.85;;;;;;;;;;2069174;28;20066;-63
2024/02/29 06:28:40;;;;;;;22.33;9.15;;;;;;;;;;2067352;28;20038;-63
2024/02/29 06:29:59;;;;;;;15.25;8.43;;;;;;;;;;2068716;28;20026;-63
2024/02/29 06:31:18;;;;;;;22.33;10.45;;;;;;;;;;2069597;28;20042;-63
2024/02/29 06:32:40;;;;;;;23.42;10.15;;;;;;;;;;2069563;28;20081;-63
2024/02/29 06:33:59;;;;;;;21.38;9.70;;;;;;;;;;2068403;28;20061;-63
2024/02/29 06:35:18;;;;;;;19.90;8.82;;;;;;;;;;2070339;28;20526;-63
2024/02/29 06:36:37;;;;;;;23.25;9.23;;;;;;;;;;2068277;28;20482;-63
2024/02/29 06:37:56;;;;;;;22.83;9.95;;;;;;;;;;2068642;28;20507;-63
2024/02/29 06:39:15;;;;;;;20.30;10.38;;;;;;;;;;2069502;28;20138;-63
2024/02/29 06:40:35;;;;;;;20.60;10.07;;;;;;;;;;2069991;28;20032;-65
2024/02/29 06:41:55;;;;;;;25.65;10.52;;;;;;;;;;2071273;28;20025;-63
2024/02/29 06:43:14;;;;;;;18.65;9.77;;;;;;;;;;2068283;28;20030;-63
2024/02/29 06:44:33;;;;;;;20.45;9.82;;;;;;;;;;2068663;28;20018;-63
2024/02/29 06:45:52;;;;;;;24.70;13.07;;;;;;;;;;2070097;28;20022;-63
2024/02/29 06:47:11;;;;;;;22.23;11.10;;;;;;;;;;2069716;28;20034;-63
2024/02/29 06:48:30;;;;;;;37.33;16.23;;;;;;;;;;2069580;28;20022;-63
2024/02/29 06:49:49;;;;;;;27.60;12.05;;;;;;;;;;2069005;28;20061;-63
2024/02/29 06:51:08;;;;;;;26.23;9.93;;;;;;;;;;2068646;28;20030;-63
2024/02/29 06:52:27;;;;;;;21.55;10.27;;;;;;;;;;2070479;28;20061;-63
2024/02/29 06:53:46;;;;;;;23.60;10.70;;;;;;;;;;2068973;28;20057;-62
2024/02/29 06:55:09;;;;;;;26.08;10.73;;;;;;;;;;2068261;28;20034;-64
2024/02/29 06:56:28;;;;;;;25.08;10.50;;;;;;;;;;2068507;28;20026;-62
2024/02/29 06:57:47;;;;;;;21.67;10.45;;;;;;;;;;2068191;28;20488;-63
2024/02/29 06:59:06;;;;;;;25.25;12.23;;;;;;;;;;2069513;28;20425;-63
2024/02/29 07:00:26;;;;;;;24.92;12.63;;;;;;;;;;2069943;28;20030;-63
2024/02/29 07:01:44;;;;;;;26.02;11.50;;;;;;;;;;2067601;28;20109;-63
2024/02/29 07:03:04;;;;;;;19.73;10.02;;;;;;;;;;2066612;28;20421;-63
2024/02/29 07:04:23;;;;;;;19.13;10.20;;;;;;;;;;2068932;28;20043;-63
2024/02/29 07:05:43;;;;;;;22.85;9.80;;;;;;;;;;2068775;28;20026;-62
2024/02/29 07:07:03;;;;;;;25.23;11.38;;;;;;;;;;2070899;28;20037;-63
2024/02/29 07:08:22;;;;;;;24.38;10.38;;;;;;;;;;2068866;28;20026;-63
2024/02/29 07:09:42;;;;;;;20.30;11.25;;;;;;;;;;2068651;28;20034;-63
2024/02/29 07:11:02;;;;;;;29.70;12.82;;;;;;;;;;2069343;28;20027;-63
2024/02/29 07:12:21;;;;;;;20.55;11.15;;;;;;;;;;2069146;28;20038;-63
2024/02/29 07:13:40;;;;;;;23.10;10.57;;;;;;;;;;2069664;28;20834;-63
2024/02/29 07:14:59;;;;;;;27.58;10.90;;;;;;;;;;2069325;28;20449;-63
2024/02/29 07:16:20;;;;;;;21.10;10.77;;;;;;;;;;2069216;28;20030;-63
2024/02/29 07:17:39;;;;;;;24.42;10.70;;;;;;;;;;2070214;28;20037;-63
2024/02/29 07:18:58;;;;;;;27.15;10.77;;;;;;;;;;2065581;28;20047;-63
2024/02/29 07:20:17;;;;;;;26.25;12.27;;;;;;;;;;2068643;28;20071;-63
2024/02/29 07:21:37;;;;;;;22.90;11.60;;;;;;;;;;2068595;28;20049;-63
2024/02/29 07:22:56;;;;;;;18.83;10.55;;;;;;;;;;2069504;28;20026;-63
2024/02/29 07:24:15;;;;;;;19.58;9.70;;;;;;;;;;2068793;28;20034;-63
2024/02/29 07:25:34;;;;;;;19.25;9.65;;;;;;;;;;2067537;28;20022;-63
2024/02/29 07:26:53;;;;;;;23.55;9.15;;;;;;;;;;2068405;28;20070;-63
2024/02/29 07:28:11;;;;;;;20.08;9.10;;;;;;;;;;2068522;28;20089;-65
2024/02/29 07:29:30;;;;;;;20.55;10.20;;;;;;;;;;2069942;28;20436;-63
2024/02/29 07:30:49;;;;;;;19.80;9.73;;;;;;;;;;2070027;28;20037;-63
2024/02/29 07:32:08;;;;;;;23.02;9.25;;;;;;;;;;2069226;28;20116;-63
2024/02/29 07:33:28;;;;;;;24.33;9.82;;;;;;;;;;2071088;28;20030;-63
2024/02/29 07:34:47;;;;;;;21.85;10.48;;;;;;;;;;2070233;28;20492;-63
2024/02/29 07:36:06;;;;;;;21.80;10.38;;;;;;;;;;2070336;28;20058;-63
2024/02/29 07:37:25;;;;;;;20.38;9.52;;;;;;;;;;2068838;28;20035;-63
2024/02/29 07:38:44;;;;;;;16.25;9.70;;;;;;;;;;2069724;28;20034;-63
2024/02/29 07:40:03;;;;;;;20.98;10.10;;;;;;;;;;2070703;28;20034;-64
2024/02/29 07:41:22;;;;;;;21.65;11.25;;;;;;;;;;2070374;28;20026;-63
2024/02/29 07:42:41;;;;;;;20.73;10.45;;;;;;;;;;2069417;28;20030;-63
2024/02/29 07:44:00;;;;;;;16.90;9.43;;;;;;;;;;2069226;28;20038;-63
2024/02/29 07:45:19;;;;;;;23.90;10.48;;;;;;;;;;2069994;28;20022;-64
2024/02/29 07:46:38;;;;;;;22.60;10.73;;;;;;;;;;2071526;28;20033;-63
2024/02/29 07:47:57;;;;;;;16.85;9.70;;;;;;;;;;2070593;28;20597;-63
2024/02/29 07:49:16;;;;;;;27.13;10.13;;;;;;;;;;2070841;28;20030;-63